PWSweather.com
Personal Weather Stations
Station Observations
WESTON01
WestonSuperMareGB BS22 8RT

WestonSuperMareGB BS22 8RT

Lat: 51.351508, Lon: -2.933373

Elevation: 15

Station Type: Fine Offset WH1080

http://www.westonweather.co.uk

Latest ConditionsUpdated 4:35:00 PM GMT Friday, May 25, 2018
Currently Today's Max Today's Min Today's Average
Temperature 58.5°F14.7°C 59.8°F15.4°C 53.7°F12.1°C 56.4°F13.6°C
Dew Point 55.6°F13.1°C 57.2°F14.0°C 51.7°F10.9°C 54.1°F12.3°C
Winds 0.9 mph NW1.4 kmh NW 6.9 mph NE11.1 kmh NE - 1.9 mph 3.1 kmh
Wind Gusts 2.7 mph4.3 kmh 11.6 mph18.7 kmh - -
Humidity 90% 94% 90% 92%
Pressure 30.07 in1018.3 mb 30.09 in1019.0 mb 30.07 in1018.3 mb -
Precipitation - 0.17 in4.3 mm - -
Hour Temp Dew Point Humidity Winds Wind Gusts Pressure Precip Precip Rate Daily Precip Total
04:35 PM 58.5°F14.7°C 55.6°F13.1°C 90% 0.9 mph NW1.4 kmh NW 2.7 mph4.3 kmh 30.07 in1018.3 mb 0.04 in1.0 mm 0.00 in0.0 mm 0.17 in4.3 mm
04:30 PM 58.5°F14.7°C 55.6°F13.1°C 90% 0.5 mph N0.8 kmh N 2.1 mph3.4 kmh 30.07 in1018.3 mb 0.04 in1.0 mm 0.00 in0.0 mm 0.17 in4.3 mm
04:25 PM 58.5°F14.7°C 55.6°F13.1°C 90% 1.1 mph N1.8 kmh N 3.6 mph5.8 kmh 30.07 in1018.3 mb 0.04 in1.0 mm 0.00 in0.0 mm 0.17 in4.3 mm
04:20 PM 58.5°F14.7°C 55.6°F13.1°C 90% 2.2 mph NNW3.5 kmh NNW 3.6 mph5.8 kmh 30.07 in1018.3 mb 0.04 in1.0 mm 0.00 in0.0 mm 0.17 in4.3 mm
04:15 PM 58.7°F14.8°C 55.8°F13.2°C 90% 2.9 mph N4.7 kmh N 3.9 mph6.3 kmh 30.07 in1018.3 mb 0.04 in1.0 mm 0.00 in0.0 mm 0.17 in4.3 mm
04:10 PM 58.9°F14.9°C 56.0°F13.3°C 90% 3.1 mph N5.0 kmh N 3.9 mph6.3 kmh 30.07 in1018.3 mb 0.04 in1.0 mm 0.00 in0.0 mm 0.17 in4.3 mm
04:05 PM 58.9°F14.9°C 56.0°F13.3°C 90% 3.0 mph NNW4.8 kmh NNW 3.9 mph6.3 kmh 30.07 in1018.3 mb 0.04 in1.0 mm 0.00 in0.0 mm 0.17 in4.3 mm
04:00 PM 59.1°F15.1°C 56.2°F13.4°C 90% 2.9 mph N4.7 kmh N 3.9 mph6.3 kmh 30.07 in1018.3 mb 0.04 in1.0 mm 0.00 in0.0 mm 0.17 in4.3 mm
03:55 PM 59.1°F15.1°C 56.2°F13.4°C 90% 2.0 mph N3.2 kmh N 3.6 mph5.8 kmh 30.07 in1018.3 mb 0.04 in1.0 mm 0.00 in0.0 mm 0.17 in4.3 mm
03:50 PM 59.1°F15.1°C 56.2°F13.4°C 90% 1.3 mph N2.1 kmh N 3.3 mph5.3 kmh 30.07 in1018.3 mb 0.04 in1.0 mm 0.48 in12.2 mm 0.17 in4.3 mm
03:45 PM 59.1°F15.1°C 56.2°F13.4°C 90% 1.8 mph N2.9 kmh N 4.5 mph7.2 kmh 30.07 in1018.3 mb 0.00 in0.0 mm 0.00 in0.0 mm 0.13 in3.3 mm
03:40 PM 59.1°F15.1°C 56.2°F13.4°C 90% 2.1 mph N3.4 kmh N 4.5 mph7.2 kmh 30.09 in1019.0 mb 0.00 in0.0 mm 0.00 in0.0 mm 0.13 in3.3 mm
03:35 PM 59.1°F15.1°C 56.2°F13.4°C 90% 1.9 mph NNE3.1 kmh NNE 4.5 mph7.2 kmh 30.09 in1019.0 mb 0.00 in0.0 mm 0.00 in0.0 mm 0.13 in3.3 mm
03:30 PM 59.1°F15.1°C 56.2°F13.4°C 90% 2.1 mph N3.4 kmh N 3.9 mph6.3 kmh 30.09 in1019.0 mb 0.00 in0.0 mm 0.00 in0.0 mm 0.13 in3.3 mm
03:25 PM 59.3°F15.2°C 56.3°F13.5°C 90% 2.5 mph NNW4.0 kmh NNW 3.9 mph6.3 kmh 30.09 in1019.0 mb 0.00 in0.0 mm 0.00 in0.0 mm 0.13 in3.3 mm
03:20 PM 59.3°F15.2°C 56.3°F13.5°C 90% 2.2 mph N3.5 kmh N 5.1 mph8.2 kmh 30.09 in1019.0 mb 0.00 in0.0 mm 0.00 in0.0 mm 0.13 in3.3 mm
03:15 PM 59.3°F15.2°C 56.3°F13.5°C 90% 2.2 mph NNE3.5 kmh NNE 5.1 mph8.2 kmh 30.09 in1019.0 mb 0.00 in0.0 mm 0.00 in0.0 mm 0.13 in3.3 mm
03:10 PM 59.5°F15.3°C 56.5°F13.6°C 90% 2.2 mph NE3.5 kmh NE 5.1 mph8.2 kmh 30.07 in1018.3 mb 0.00 in0.0 mm 0.00 in0.0 mm 0.13 in3.3 mm
03:05 PM 59.5°F15.3°C 56.5°F13.6°C 90% 2.3 mph N3.7 kmh N 4.5 mph7.2 kmh 30.07 in1018.3 mb 0.00 in0.0 mm 0.00 in0.0 mm 0.13 in3.3 mm
03:00 PM 59.5°F15.3°C 56.5°F13.6°C 90% 2.8 mph N4.5 kmh N 4.5 mph7.2 kmh 30.07 in1018.3 mb 0.00 in0.0 mm 0.00 in0.0 mm 0.13 in3.3 mm
02:55 PM 59.5°F15.3°C 56.8°F13.8°C 91% 2.8 mph NNE4.5 kmh NNE 5.1 mph8.2 kmh 30.07 in1018.3 mb 0.00 in0.0 mm 0.00 in0.0 mm 0.13 in3.3 mm
02:50 PM 59.6°F15.3°C 57.0°F13.9°C 91% 3.1 mph NNE5.0 kmh NNE 5.1 mph8.2 kmh 30.07 in1018.3 mb 0.00 in0.0 mm 0.00 in0.0 mm 0.13 in3.3 mm
02:45 PM 59.8°F15.4°C 57.2°F14.0°C 91% 3.1 mph NNE5.0 kmh NNE 4.8 mph7.7 kmh 30.07 in1018.3 mb 0.00 in0.0 mm 0.00 in0.0 mm 0.13 in3.3 mm
02:40 PM 59.8°F15.4°C 57.2°F14.0°C 91% 2.4 mph NNE3.9 kmh NNE 4.5 mph7.2 kmh 30.07 in1018.3 mb 0.00 in0.0 mm 0.00 in0.0 mm 0.13 in3.3 mm
02:35 PM 59.8°F15.4°C 57.2°F14.0°C 91% 2.3 mph N3.7 kmh N 5.4 mph8.7 kmh 30.07 in1018.3 mb 0.00 in0.0 mm 0.00 in0.0 mm 0.13 in3.3 mm
02:30 PM 59.6°F15.3°C 57.0°F13.9°C 91% 3.1 mph N5.0 kmh N 5.4 mph8.7 kmh 30.07 in1018.3 mb 0.00 in0.0 mm 0.00 in0.0 mm 0.13 in3.3 mm
02:25 PM 59.6°F15.3°C 57.0°F13.9°C 91% 3.5 mph N5.6 kmh N 5.4 mph8.7 kmh 30.07 in1018.3 mb 0.00 in0.0 mm 0.00 in0.0 mm 0.13 in3.3 mm
02:20 PM 59.5°F15.3°C 57.1°F13.9°C 92% 3.5 mph N5.6 kmh N 5.4 mph8.7 kmh 30.07 in1018.3 mb 0.00 in0.0 mm 0.00 in0.0 mm 0.13 in3.3 mm
02:15 PM 59.3°F15.2°C 56.9°F13.8°C 92% 2.8 mph N4.5 kmh N 5.4 mph8.7 kmh 30.07 in1018.3 mb 0.00 in0.0 mm 0.00 in0.0 mm 0.13 in3.3 mm
02:10 PM 59.3°F15.2°C 56.9°F13.8°C 92% 2.5 mph N4.0 kmh N 3.6 mph5.8 kmh 30.09 in1019.0 mb 0.00 in0.0 mm 0.00 in0.0 mm 0.13 in3.3 mm
02:05 PM 58.9°F14.9°C 56.6°F13.7°C 92% 2.6 mph NNW4.2 kmh NNW 4.8 mph7.7 kmh 30.09 in1019.0 mb 0.00 in0.0 mm 0.00 in0.0 mm 0.13 in3.3 mm
02:00 PM 58.7°F14.8°C 56.4°F13.6°C 92% 2.4 mph NNW3.9 kmh NNW 4.8 mph7.7 kmh 30.09 in1019.0 mb 0.00 in0.0 mm 0.00 in0.0 mm 0.13 in3.3 mm
01:55 PM 58.4°F14.7°C 56.1°F13.4°C 92% 1.6 mph NNW2.6 kmh NNW 3.9 mph6.3 kmh 30.09 in1019.0 mb 0.00 in0.0 mm 0.00 in0.0 mm 0.13 in3.3 mm
01:50 PM 58.2°F14.6°C 55.9°F13.3°C 92% 1.0 mph NW1.6 kmh NW 2.1 mph3.4 kmh 30.09 in1019.0 mb 0.05 in1.3 mm 0.00 in0.0 mm 0.13 in3.3 mm
01:45 PM 58.0°F14.4°C 55.7°F13.2°C 92% 1.2 mph NW1.9 kmh NW 3.9 mph6.3 kmh 30.09 in1019.0 mb 0.05 in1.3 mm 0.00 in0.0 mm 0.13 in3.3 mm
01:40 PM 57.8°F14.3°C 55.5°F13.1°C 92% 1.2 mph NW1.9 kmh NW 3.9 mph6.3 kmh 30.09 in1019.0 mb 0.05 in1.3 mm 0.00 in0.0 mm 0.13 in3.3 mm
01:35 PM 57.7°F14.3°C 55.3°F12.9°C 92% 0.7 mph NNW1.1 kmh NNW 2.7 mph4.3 kmh 30.09 in1019.0 mb 0.05 in1.3 mm 0.00 in0.0 mm 0.13 in3.3 mm
01:30 PM 57.3°F14.1°C 55.0°F12.8°C 92% 0.6 mph N1.0 kmh N 3.3 mph5.3 kmh 30.09 in1019.0 mb 0.05 in1.3 mm 0.00 in0.0 mm 0.13 in3.3 mm
01:25 PM 57.1°F13.9°C 54.8°F12.7°C 92% 1.2 mph N1.9 kmh N 3.6 mph5.8 kmh 30.09 in1019.0 mb 0.05 in1.3 mm 0.00 in0.0 mm 0.13 in3.3 mm
01:20 PM 57.1°F13.9°C 54.5°F12.5°C 91% 2.2 mph NNW3.5 kmh NNW 4.2 mph6.8 kmh 30.09 in1019.0 mb 0.05 in1.3 mm 0.00 in0.0 mm 0.13 in3.3 mm
01:15 PM 57.1°F13.9°C 54.5°F12.5°C 91% 3.0 mph NNW4.8 kmh NNW 4.2 mph6.8 kmh 30.09 in1019.0 mb 0.05 in1.3 mm 0.00 in0.0 mm 0.13 in3.3 mm
01:10 PM 57.3°F14.1°C 54.7°F12.6°C 91% 2.6 mph N4.2 kmh N 4.5 mph7.2 kmh 30.09 in1019.0 mb 0.05 in1.3 mm 0.00 in0.0 mm 0.13 in3.3 mm
01:05 PM 57.3°F14.1°C 54.7°F12.6°C 91% 2.1 mph N3.4 kmh N 5.1 mph8.2 kmh 30.09 in1019.0 mb 0.05 in1.3 mm 0.00 in0.0 mm 0.13 in3.3 mm
01:00 PM 57.3°F14.1°C 54.7°F12.6°C 91% 1.6 mph NNE2.6 kmh NNE 5.1 mph8.2 kmh 30.09 in1019.0 mb 0.05 in1.3 mm 0.00 in0.0 mm 0.13 in3.3 mm
12:55 PM 57.5°F14.2°C 54.9°F12.7°C 91% 1.4 mph N2.3 kmh N 3.9 mph6.3 kmh 30.09 in1019.0 mb 0.05 in1.3 mm 0.60 in15.2 mm 0.13 in3.3 mm
12:50 PM 57.7°F14.3°C 55.0°F12.8°C 91% 1.4 mph N2.3 kmh N 3.9 mph6.3 kmh 30.09 in1019.0 mb 0.00 in0.0 mm 0.00 in0.0 mm 0.08 in2.0 mm
12:45 PM 57.7°F14.3°C 55.0°F12.8°C 91% 1.7 mph N2.7 kmh N 3.6 mph5.8 kmh 30.09 in1019.0 mb 0.00 in0.0 mm 0.00 in0.0 mm 0.08 in2.0 mm
12:40 PM 57.8°F14.3°C 55.2°F12.9°C 91% 1.5 mph N2.4 kmh N 3.6 mph5.8 kmh 30.09 in1019.0 mb 0.00 in0.0 mm 0.00 in0.0 mm 0.08 in2.0 mm
12:35 PM 57.8°F14.3°C 55.2°F12.9°C 91% 1.0 mph NNW1.6 kmh NNW 2.1 mph3.4 kmh 30.09 in1019.0 mb 0.00 in0.0 mm 0.00 in0.0 mm 0.08 in2.0 mm
12:30 PM 57.8°F14.3°C 55.2°F12.9°C 91% 0.9 mph NW1.4 kmh NW 2.1 mph3.4 kmh 30.09 in1019.0 mb 0.00 in0.0 mm 0.00 in0.0 mm 0.08 in2.0 mm
12:25 PM 57.8°F14.3°C 55.2°F12.9°C 91% 1.9 mph NW3.1 kmh NW 4.5 mph7.2 kmh 30.09 in1019.0 mb 0.04 in1.0 mm 0.00 in0.0 mm 0.08 in2.0 mm
12:20 PM 57.7°F14.3°C 55.0°F12.8°C 91% 2.9 mph NNW4.7 kmh NNW 4.5 mph7.2 kmh 30.09 in1019.0 mb 0.04 in1.0 mm 0.00 in0.0 mm 0.08 in2.0 mm
12:15 PM 57.7°F14.3°C 55.0°F12.8°C 91% 3.0 mph N4.8 kmh N 4.5 mph7.2 kmh 30.09 in1019.0 mb 0.04 in1.0 mm 0.00 in0.0 mm 0.08 in2.0 mm
12:10 PM 57.7°F14.3°C 55.0°F12.8°C 91% 3.0 mph NNE4.8 kmh NNE 4.2 mph6.8 kmh 30.09 in1019.0 mb 0.04 in1.0 mm 0.00 in0.0 mm 0.08 in2.0 mm
12:05 PM 57.8°F14.3°C 55.2°F12.9°C 91% 2.8 mph N4.5 kmh N 4.2 mph6.8 kmh 30.09 in1019.0 mb 0.04 in1.0 mm 0.00 in0.0 mm 0.08 in2.0 mm
12:00 PM 57.8°F14.3°C 55.2°F12.9°C 91% 3.1 mph NNE5.0 kmh NNE 5.4 mph8.7 kmh 30.09 in1019.0 mb 0.04 in1.0 mm 0.00 in0.0 mm 0.08 in2.0 mm
11:55 AM 57.8°F14.3°C 55.2°F12.9°C 91% 5.1 mph N8.2 kmh N 8.3 mph13.4 kmh 30.09 in1019.0 mb 0.04 in1.0 mm 0.00 in0.0 mm 0.08 in2.0 mm
11:50 AM 58.0°F14.4°C 55.4°F13.0°C 91% 4.3 mph N6.9 kmh N 8.3 mph13.4 kmh 30.09 in1019.0 mb 0.04 in1.0 mm 0.00 in0.0 mm 0.08 in2.0 mm
11:45 AM 58.0°F14.4°C 55.4°F13.0°C 91% 3.0 mph NE4.8 kmh NE 5.7 mph9.2 kmh 30.09 in1019.0 mb 0.04 in1.0 mm 0.00 in0.0 mm 0.08 in2.0 mm
11:40 AM 58.0°F14.4°C 55.4°F13.0°C 91% 3.5 mph NNE5.6 kmh NNE 5.7 mph9.2 kmh 30.09 in1019.0 mb 0.04 in1.0 mm 0.00 in0.0 mm 0.08 in2.0 mm
11:35 AM 58.0°F14.4°C 55.4°F13.0°C 91% 3.9 mph N6.3 kmh N 5.7 mph9.2 kmh 30.09 in1019.0 mb 0.04 in1.0 mm 0.00 in0.0 mm 0.08 in2.0 mm
11:30 AM 58.0°F14.4°C 55.4°F13.0°C 91% 3.7 mph N6.0 kmh N 5.4 mph8.7 kmh 30.09 in1019.0 mb 0.04 in1.0 mm 0.48 in12.2 mm 0.08 in2.0 mm
11:25 AM 58.0°F14.4°C 55.4°F13.0°C 91% 3.3 mph N5.3 kmh N 5.1 mph8.2 kmh 30.09 in1019.0 mb 0.00 in0.0 mm 0.00 in0.0 mm 0.04 in1.0 mm
11:20 AM 57.8°F14.3°C 55.2°F12.9°C 91% 3.9 mph N6.3 kmh N 5.1 mph8.2 kmh 30.09 in1019.0 mb 0.00 in0.0 mm 0.00 in0.0 mm 0.04 in1.0 mm
11:15 AM 58.0°F14.4°C 55.4°F13.0°C 91% 4.1 mph N6.6 kmh N 5.1 mph8.2 kmh 30.09 in1019.0 mb 0.00 in0.0 mm 0.00 in0.0 mm 0.04 in1.0 mm
11:10 AM 58.0°F14.4°C 55.4°F13.0°C 91% 3.9 mph N6.3 kmh N 6.2 mph10.0 kmh 30.09 in1019.0 mb 0.00 in0.0 mm 0.00 in0.0 mm 0.04 in1.0 mm
11:05 AM 58.0°F14.4°C 55.4°F13.0°C 91% 4.0 mph NNW6.4 kmh NNW 6.2 mph10.0 kmh 30.09 in1019.0 mb 0.00 in0.0 mm 0.00 in0.0 mm 0.04 in1.0 mm
11:00 AM 57.8°F14.3°C 55.2°F12.9°C 91% 4.2 mph NNW6.8 kmh NNW 6.5 mph10.5 kmh 30.09 in1019.0 mb 0.00 in0.0 mm 0.00 in0.0 mm 0.04 in1.0 mm
10:55 AM 57.8°F14.3°C 55.2°F12.9°C 91% 4.1 mph N6.6 kmh N 6.5 mph10.5 kmh 30.09 in1019.0 mb 0.00 in0.0 mm 0.00 in0.0 mm 0.04 in1.0 mm
10:50 AM 57.8°F14.3°C 55.2°F12.9°C 91% 3.7 mph NNW6.0 kmh NNW 6.5 mph10.5 kmh 30.09 in1019.0 mb 0.00 in0.0 mm 0.00 in0.0 mm 0.04 in1.0 mm
10:45 AM 57.8°F14.3°C 55.2°F12.9°C 91% 3.3 mph NNW5.3 kmh NNW 5.1 mph8.2 kmh 30.09 in1019.0 mb 0.00 in0.0 mm 0.00 in0.0 mm 0.04 in1.0 mm
10:40 AM 58.0°F14.4°C 55.4°F13.0°C 91% 3.8 mph N6.1 kmh N 5.4 mph8.7 kmh 30.09 in1019.0 mb 0.00 in0.0 mm 0.00 in0.0 mm 0.04 in1.0 mm
10:35 AM 58.0°F14.4°C 55.4°F13.0°C 91% 3.9 mph N6.3 kmh N 5.4 mph8.7 kmh 30.09 in1019.0 mb 0.00 in0.0 mm 0.00 in0.0 mm 0.04 in1.0 mm
10:30 AM 58.2°F14.6°C 55.6°F13.1°C 91% 3.2 mph NNW5.1 kmh NNW 4.8 mph7.7 kmh 30.09 in1019.0 mb 0.00 in0.0 mm 0.00 in0.0 mm 0.04 in1.0 mm
10:25 AM 58.2°F14.6°C 55.9°F13.3°C 92% 3.7 mph NNW6.0 kmh NNW 4.8 mph7.7 kmh 30.09 in1019.0 mb 0.00 in0.0 mm 0.00 in0.0 mm 0.04 in1.0 mm
10:20 AM 58.2°F14.6°C 55.9°F13.3°C 92% 4.4 mph N7.1 kmh N 7.4 mph11.9 kmh 30.09 in1019.0 mb 0.00 in0.0 mm 0.00 in0.0 mm 0.04 in1.0 mm
10:15 AM 58.2°F14.6°C 55.9°F13.3°C 92% 4.9 mph N7.9 kmh N 7.4 mph11.9 kmh 30.09 in1019.0 mb 0.00 in0.0 mm 0.00 in0.0 mm 0.04 in1.0 mm
10:10 AM 58.2°F14.6°C 55.9°F13.3°C 92% 4.5 mph NNW7.2 kmh NNW 5.4 mph8.7 kmh 30.09 in1019.0 mb 0.00 in0.0 mm 0.00 in0.0 mm 0.04 in1.0 mm
10:05 AM 58.2°F14.6°C 55.9°F13.3°C 92% 3.6 mph NNW5.8 kmh NNW 5.4 mph8.7 kmh 30.09 in1019.0 mb 0.00 in0.0 mm 0.00 in0.0 mm 0.04 in1.0 mm
10:00 AM 58.0°F14.4°C 55.7°F13.2°C 92% 2.6 mph N4.2 kmh N 4.5 mph7.2 kmh 30.09 in1019.0 mb 0.00 in0.0 mm 0.00 in0.0 mm 0.04 in1.0 mm
09:55 AM 57.8°F14.3°C 55.5°F13.1°C 92% 2.2 mph N3.5 kmh N 4.2 mph6.8 kmh 30.09 in1019.0 mb 0.00 in0.0 mm 0.00 in0.0 mm 0.04 in1.0 mm
09:50 AM 57.5°F14.2°C 55.2°F12.9°C 92% 2.4 mph N3.9 kmh N 4.2 mph6.8 kmh 30.09 in1019.0 mb 0.00 in0.0 mm 0.00 in0.0 mm 0.04 in1.0 mm
09:45 AM 57.1°F13.9°C 54.8°F12.7°C 92% 2.6 mph NNW4.2 kmh NNW 4.8 mph7.7 kmh 30.09 in1019.0 mb 0.00 in0.0 mm 0.00 in0.0 mm 0.04 in1.0 mm
09:40 AM 56.9°F13.8°C 54.6°F12.6°C 92% 2.7 mph N4.3 kmh N 4.8 mph7.7 kmh 30.09 in1019.0 mb 0.00 in0.0 mm 0.00 in0.0 mm 0.04 in1.0 mm
09:35 AM 56.9°F13.8°C 54.6°F12.6°C 92% 2.3 mph N3.7 kmh N 4.8 mph7.7 kmh 30.09 in1019.0 mb 0.00 in0.0 mm 0.00 in0.0 mm 0.04 in1.0 mm
09:30 AM 56.8°F13.8°C 54.5°F12.5°C 92% 2.1 mph N3.4 kmh N 3.3 mph5.3 kmh 30.09 in1019.0 mb 0.00 in0.0 mm 0.00 in0.0 mm 0.04 in1.0 mm
09:25 AM 56.8°F13.8°C 54.5°F12.5°C 92% 2.6 mph N4.2 kmh N 3.3 mph5.3 kmh 30.09 in1019.0 mb 0.00 in0.0 mm 0.00 in0.0 mm 0.04 in1.0 mm
09:20 AM 56.8°F13.8°C 54.5°F12.5°C 92% 3.4 mph NNE5.5 kmh NNE 6.5 mph10.5 kmh 30.09 in1019.0 mb 0.00 in0.0 mm 0.00 in0.0 mm 0.04 in1.0 mm
09:15 AM 56.9°F13.8°C 54.6°F12.6°C 92% 3.8 mph NNE6.1 kmh NNE 6.5 mph10.5 kmh 30.09 in1019.0 mb 0.00 in0.0 mm 0.00 in0.0 mm 0.04 in1.0 mm
09:10 AM 56.9°F13.8°C 54.6°F12.6°C 92% 3.6 mph N5.8 kmh N 7.1 mph11.4 kmh 30.09 in1019.0 mb 0.00 in0.0 mm 0.00 in0.0 mm 0.04 in1.0 mm
09:05 AM 56.9°F13.8°C 54.6°F12.6°C 92% 4.4 mph N7.1 kmh N 7.1 mph11.4 kmh 30.09 in1019.0 mb 0.00 in0.0 mm 0.00 in0.0 mm 0.04 in1.0 mm
09:00 AM 56.8°F13.8°C 54.5°F12.5°C 92% 5.1 mph N8.2 kmh N 8.0 mph12.9 kmh 30.09 in1019.0 mb 0.00 in0.0 mm 0.00 in0.0 mm 0.04 in1.0 mm
08:55 AM 56.8°F13.8°C 54.5°F12.5°C 92% 3.7 mph N6.0 kmh N 8.0 mph12.9 kmh 30.09 in1019.0 mb 0.00 in0.0 mm 0.00 in0.0 mm 0.04 in1.0 mm
08:50 AM 56.6°F13.7°C 54.3°F12.4°C 92% 4.3 mph N6.9 kmh N 8.0 mph12.9 kmh 30.09 in1019.0 mb 0.00 in0.0 mm 0.00 in0.0 mm 0.04 in1.0 mm
08:45 AM 56.6°F13.7°C 54.3°F12.4°C 92% 5.1 mph NNE8.2 kmh NNE 7.4 mph11.9 kmh 30.09 in1019.0 mb 0.00 in0.0 mm 0.00 in0.0 mm 0.04 in1.0 mm
08:40 AM 56.6°F13.7°C 54.3°F12.4°C 92% 5.1 mph NE8.2 kmh NE 6.5 mph10.5 kmh 30.09 in1019.0 mb 0.00 in0.0 mm 0.00 in0.0 mm 0.04 in1.0 mm
08:35 AM 56.4°F13.6°C 54.1°F12.3°C 92% 4.8 mph NE7.7 kmh NE 6.5 mph10.5 kmh 30.09 in1019.0 mb 0.00 in0.0 mm 0.00 in0.0 mm 0.04 in1.0 mm
08:30 AM 56.4°F13.6°C 54.1°F12.3°C 92% 5.2 mph NE8.4 kmh NE 10.1 mph16.3 kmh 30.09 in1019.0 mb 0.00 in0.0 mm 0.00 in0.0 mm 0.04 in1.0 mm
08:25 AM 56.4°F13.6°C 54.1°F12.3°C 92% 6.4 mph NE10.3 kmh NE 10.1 mph16.3 kmh 30.09 in1019.0 mb 0.00 in0.0 mm 0.00 in0.0 mm 0.04 in1.0 mm
08:20 AM 56.4°F13.6°C 54.1°F12.3°C 92% 6.9 mph NE11.1 kmh NE 11.6 mph18.7 kmh 30.09 in1019.0 mb 0.00 in0.0 mm 0.00 in0.0 mm 0.04 in1.0 mm
08:15 AM 56.6°F13.7°C 54.6°F12.6°C 93% 6.1 mph NNE9.8 kmh NNE 11.6 mph18.7 kmh 30.09 in1019.0 mb 0.00 in0.0 mm 0.00 in0.0 mm 0.04 in1.0 mm
08:10 AM 56.6°F13.7°C 54.6°F12.6°C 93% 4.9 mph NNE7.9 kmh NNE 8.6 mph13.8 kmh 30.09 in1019.0 mb 0.00 in0.0 mm 0.00 in0.0 mm 0.04 in1.0 mm
08:05 AM 56.6°F13.7°C 54.6°F12.6°C 93% 5.5 mph NNE8.9 kmh NNE 8.6 mph13.8 kmh 30.09 in1019.0 mb 0.00 in0.0 mm 0.00 in0.0 mm 0.04 in1.0 mm
08:00 AM 56.6°F13.7°C 54.6°F12.6°C 93% 5.9 mph N9.5 kmh N 8.6 mph13.8 kmh 30.09 in1019.0 mb 0.00 in0.0 mm 0.00 in0.0 mm 0.04 in1.0 mm
07:55 AM 56.6°F13.7°C 54.6°F12.6°C 93% 4.7 mph NNE7.6 kmh NNE 9.8 mph15.8 kmh 30.09 in1019.0 mb 0.00 in0.0 mm 0.00 in0.0 mm 0.04 in1.0 mm
07:50 AM 56.6°F13.7°C 54.6°F12.6°C 93% 4.1 mph NNE6.6 kmh NNE 9.8 mph15.8 kmh 30.09 in1019.0 mb 0.00 in0.0 mm 0.00 in0.0 mm 0.04 in1.0 mm
07:45 AM 56.6°F13.7°C 54.6°F12.6°C 93% 3.9 mph NNE6.3 kmh NNE 7.7 mph12.4 kmh 30.09 in1019.0 mb 0.00 in0.0 mm 0.00 in0.0 mm 0.04 in1.0 mm
07:40 AM 56.4°F13.6°C 54.4°F12.4°C 93% 4.2 mph NNE6.8 kmh NNE 7.7 mph12.4 kmh 30.09 in1019.0 mb 0.00 in0.0 mm 0.00 in0.0 mm 0.04 in1.0 mm
07:35 AM 56.4°F13.6°C 54.4°F12.4°C 93% 3.7 mph NE6.0 kmh NE 7.7 mph12.4 kmh 30.09 in1019.0 mb 0.00 in0.0 mm 0.00 in0.0 mm 0.04 in1.0 mm
07:30 AM 56.4°F13.6°C 54.4°F12.4°C 93% 3.3 mph NE5.3 kmh NE 5.7 mph9.2 kmh 30.09 in1019.0 mb 0.00 in0.0 mm 0.00 in0.0 mm 0.04 in1.0 mm
07:25 AM 56.4°F13.6°C 54.7°F12.6°C 94% 3.5 mph NE5.6 kmh NE 5.4 mph8.7 kmh 30.07 in1018.3 mb 0.00 in0.0 mm 0.00 in0.0 mm 0.04 in1.0 mm
07:20 AM 56.2°F13.4°C 54.5°F12.5°C 94% 3.0 mph NE4.8 kmh NE 5.4 mph8.7 kmh 30.07 in1018.3 mb 0.00 in0.0 mm 0.00 in0.0 mm 0.04 in1.0 mm
07:15 AM 56.2°F13.4°C 54.5°F12.5°C 94% 1.5 mph NE2.4 kmh NE 3.3 mph5.3 kmh 30.07 in1018.3 mb 0.00 in0.0 mm 0.00 in0.0 mm 0.04 in1.0 mm
07:10 AM 56.0°F13.3°C 54.3°F12.4°C 94% 0.9 mph NNE1.4 kmh NNE 3.3 mph5.3 kmh 30.07 in1018.3 mb 0.00 in0.0 mm 0.00 in0.0 mm 0.04 in1.0 mm
07:05 AM 55.8°F13.2°C 54.1°F12.3°C 94% 0.8 mph N1.3 kmh N 3.3 mph5.3 kmh 30.07 in1018.3 mb 0.00 in0.0 mm 0.00 in0.0 mm 0.04 in1.0 mm
07:00 AM 55.5°F13.1°C 53.8°F12.1°C 94% 1.2 mph NE1.9 kmh NE 3.3 mph5.3 kmh 30.07 in1018.3 mb 0.00 in0.0 mm 0.00 in0.0 mm 0.04 in1.0 mm
06:55 AM 55.5°F13.1°C 53.8°F12.1°C 94% 1.1 mph NE1.8 kmh NE 3.3 mph5.3 kmh 30.07 in1018.3 mb 0.00 in0.0 mm 0.00 in0.0 mm 0.04 in1.0 mm
06:50 AM 55.5°F13.1°C 53.8°F12.1°C 94% 1.9 mph NE3.1 kmh NE 4.2 mph6.8 kmh 30.07 in1018.3 mb 0.00 in0.0 mm 0.00 in0.0 mm 0.04 in1.0 mm
06:45 AM 55.5°F13.1°C 53.8°F12.1°C 94% 2.8 mph ENE4.5 kmh ENE 5.1 mph8.2 kmh 30.07 in1018.3 mb 0.00 in0.0 mm 0.00 in0.0 mm 0.04 in1.0 mm
06:40 AM 55.3°F12.9°C 53.6°F12.0°C 94% 2.5 mph ENE4.0 kmh ENE 5.1 mph8.2 kmh 30.07 in1018.3 mb 0.00 in0.0 mm 0.00 in0.0 mm 0.04 in1.0 mm
06:35 AM 55.1°F12.8°C 53.4°F11.9°C 94% 1.1 mph ENE1.8 kmh ENE 3.3 mph5.3 kmh 30.07 in1018.3 mb 0.00 in0.0 mm 0.00 in0.0 mm 0.04 in1.0 mm
06:30 AM 55.1°F12.8°C 53.4°F11.9°C 94% 1.0 mph E1.6 kmh E 3.6 mph5.8 kmh 30.07 in1018.3 mb 0.00 in0.0 mm 0.00 in0.0 mm 0.04 in1.0 mm
06:25 AM 55.0°F12.8°C 53.3°F11.8°C 94% 1.4 mph ENE2.3 kmh ENE 3.6 mph5.8 kmh 30.07 in1018.3 mb 0.00 in0.0 mm 0.00 in0.0 mm 0.04 in1.0 mm
06:20 AM 55.0°F12.8°C 53.3°F11.8°C 94% 0.8 mph NE1.3 kmh NE 3.0 mph4.8 kmh 30.07 in1018.3 mb 0.00 in0.0 mm 0.00 in0.0 mm 0.04 in1.0 mm
06:15 AM 54.8°F12.7°C 53.1°F11.7°C 94% 0.1 mph NE0.2 kmh NE 1.5 mph2.4 kmh 30.07 in1018.3 mb 0.00 in0.0 mm 0.00 in0.0 mm 0.04 in1.0 mm
06:10 AM 54.8°F12.7°C 53.1°F11.7°C 94% 0.2 mph NE0.3 kmh NE 1.8 mph2.9 kmh 30.07 in1018.3 mb 0.00 in0.0 mm 0.00 in0.0 mm 0.04 in1.0 mm
06:05 AM 54.6°F12.6°C 52.9°F11.6°C 94% 0.5 mph NE0.8 kmh NE 1.8 mph2.9 kmh 30.07 in1018.3 mb 0.00 in0.0 mm 0.00 in0.0 mm 0.04 in1.0 mm
06:00 AM 54.6°F12.6°C 52.9°F11.6°C 94% 0.4 mph NE0.6 kmh NE 2.7 mph4.3 kmh 30.07 in1018.3 mb 0.00 in0.0 mm 0.00 in0.0 mm 0.04 in1.0 mm
05:55 AM 54.4°F12.4°C 52.7°F11.5°C 94% 0.2 mph E0.3 kmh E 2.7 mph4.3 kmh 30.07 in1018.3 mb 0.00 in0.0 mm 0.00 in0.0 mm 0.04 in1.0 mm
05:50 AM 54.4°F12.4°C 52.7°F11.5°C 94% Calm Calm -- 30.07 in1018.3 mb 0.04 in1.0 mm 0.00 in0.0 mm 0.04 in1.0 mm
05:45 AM 54.4°F12.4°C 52.7°F11.5°C 94% Calm Calm -- 30.07 in1018.3 mb 0.04 in1.0 mm 0.00 in0.0 mm 0.04 in1.0 mm
05:40 AM 54.2°F12.3°C 52.5°F11.4°C 94% 0.2 mph NE0.3 kmh NE 3.3 mph5.3 kmh 30.07 in1018.3 mb 0.04 in1.0 mm 0.00 in0.0 mm 0.04 in1.0 mm
05:35 AM 54.2°F12.3°C 52.5°F11.4°C 94% 0.5 mph NE0.8 kmh NE 3.3 mph5.3 kmh 30.07 in1018.3 mb 0.04 in1.0 mm 0.00 in0.0 mm 0.04 in1.0 mm
05:30 AM 54.2°F12.3°C 52.2°F11.2°C 93% 0.5 mph ENE0.8 kmh ENE 3.0 mph4.8 kmh 30.07 in1018.3 mb 0.04 in1.0 mm 0.00 in0.0 mm 0.04 in1.0 mm
05:25 AM 54.2°F12.3°C 52.2°F11.2°C 93% 0.7 mph ENE1.1 kmh ENE 3.0 mph4.8 kmh 30.07 in1018.3 mb 0.04 in1.0 mm 0.00 in0.0 mm 0.04 in1.0 mm
05:20 AM 54.0°F12.2°C 52.4°F11.3°C 94% 0.9 mph E1.4 kmh E 2.1 mph3.4 kmh 30.07 in1018.3 mb 0.04 in1.0 mm 0.00 in0.0 mm 0.04 in1.0 mm
05:15 AM 54.0°F12.2°C 52.4°F11.3°C 94% 0.8 mph E1.3 kmh E 2.1 mph3.4 kmh 30.07 in1018.3 mb 0.04 in1.0 mm 0.00 in0.0 mm 0.04 in1.0 mm
05:10 AM 54.0°F12.2°C 52.4°F11.3°C 94% 1.6 mph NE2.6 kmh NE 3.6 mph5.8 kmh 30.07 in1018.3 mb 0.04 in1.0 mm 0.00 in0.0 mm 0.04 in1.0 mm
05:05 AM 54.0°F12.2°C 52.4°F11.3°C 94% 2.0 mph NE3.2 kmh NE 3.6 mph5.8 kmh 30.07 in1018.3 mb 0.04 in1.0 mm 0.00 in0.0 mm 0.04 in1.0 mm
05:00 AM 54.0°F12.2°C 52.4°F11.3°C 94% 1.6 mph NE2.6 kmh NE 3.0 mph4.8 kmh 30.07 in1018.3 mb 0.04 in1.0 mm 0.00 in0.0 mm 0.04 in1.0 mm
04:55 AM 54.0°F12.2°C 52.4°F11.3°C 94% 1.6 mph NE2.6 kmh NE 3.6 mph5.8 kmh 30.07 in1018.3 mb 0.04 in1.0 mm 0.48 in12.2 mm 0.04 in1.0 mm
04:50 AM 53.9°F12.2°C 52.2°F11.2°C 94% 1.3 mph NE2.1 kmh NE 3.6 mph5.8 kmh 30.07 in1018.3 mb 0.00 in0.0 mm 0.00 in0.0 mm 0.00 in0.0 mm
04:45 AM 53.9°F12.2°C 52.2°F11.2°C 94% 1.3 mph E2.1 kmh E 3.3 mph5.3 kmh 30.07 in1018.3 mb 0.00 in0.0 mm 0.00 in0.0 mm 0.00 in0.0 mm
04:40 AM 53.9°F12.2°C 52.2°F11.2°C 94% 1.1 mph E1.8 kmh E 3.3 mph5.3 kmh 30.07 in1018.3 mb 0.00 in0.0 mm 0.00 in0.0 mm 0.00 in0.0 mm
04:35 AM 53.7°F12.1°C 52.0°F11.1°C 94% 0.1 mph E0.2 kmh E 1.2 mph1.9 kmh 30.07 in1018.3 mb 0.00 in0.0 mm 0.00 in0.0 mm 0.00 in0.0 mm
04:30 AM 53.7°F12.1°C 51.7°F10.9°C 93% Calm Calm -- 30.07 in1018.3 mb 0.00 in0.0 mm 0.00 in0.0 mm 0.00 in0.0 mm
04:25 AM 53.7°F12.1°C 51.7°F10.9°C 93% Calm Calm -- 30.07 in1018.3 mb 0.00 in0.0 mm 0.00 in0.0 mm 0.00 in0.0 mm
04:20 AM 53.7°F12.1°C 51.7°F10.9°C 93% Calm Calm -- 30.07 in1018.3 mb 0.00 in0.0 mm 0.00 in0.0 mm 0.00 in0.0 mm
04:15 AM 53.7°F12.1°C 51.7°F10.9°C 93% Calm Calm -- 30.07 in1018.3 mb 0.00 in0.0 mm 0.00 in0.0 mm 0.00 in0.0 mm
04:10 AM 53.9°F12.2°C 51.9°F11.1°C 93% Calm Calm -- 30.07 in1018.3 mb 0.00 in0.0 mm 0.00 in0.0 mm 0.00 in0.0 mm
04:05 AM 53.9°F12.2°C 51.9°F11.1°C 93% Calm Calm -- 30.07 in1018.3 mb 0.00 in0.0 mm 0.00 in0.0 mm 0.00 in0.0 mm
04:00 AM 53.9°F12.2°C 51.9°F11.1°C 93% Calm Calm -- 30.07 in1018.3 mb 0.00 in0.0 mm 0.00 in0.0 mm 0.00 in0.0 mm
03:55 AM 54.0°F12.2°C 52.1°F11.2°C 93% Calm Calm -- 30.07 in1018.3 mb 0.00 in0.0 mm 0.00 in0.0 mm 0.00 in0.0 mm
03:50 AM 54.0°F12.2°C 52.1°F11.2°C 93% Calm Calm -- 30.07 in1018.3 mb 0.00 in0.0 mm 0.00 in0.0 mm 0.00 in0.0 mm
03:45 AM 54.0°F12.2°C 52.1°F11.2°C 93% Calm Calm -- 30.07 in1018.3 mb 0.00 in0.0 mm 0.00 in0.0 mm 0.00 in0.0 mm
03:40 AM 54.0°F12.2°C 52.1°F11.2°C 93% Calm Calm -- 30.07 in1018.3 mb 0.00 in0.0 mm 0.00 in0.0 mm 0.00 in0.0 mm
03:35 AM 54.0°F12.2°C 52.1°F11.2°C 93% Calm Calm -- 30.07 in1018.3 mb 0.00 in0.0 mm 0.00 in0.0 mm 0.00 in0.0 mm
03:30 AM 54.0°F12.2°C 52.1°F11.2°C 93% Calm Calm -- 30.07 in1018.3 mb 0.00 in0.0 mm 0.00 in0.0 mm 0.00 in0.0 mm
03:25 AM 54.0°F12.2°C 52.1°F11.2°C 93% Calm Calm -- 30.07 in1018.3 mb 0.00 in0.0 mm 0.00 in0.0 mm 0.00 in0.0 mm
03:20 AM 54.0°F12.2°C 52.1°F11.2°C 93% Calm Calm -- 30.07 in1018.3 mb 0.00 in0.0 mm 0.00 in0.0 mm 0.00 in0.0 mm
03:15 AM 54.0°F12.2°C 52.1°F11.2°C 93% Calm Calm -- 30.07 in1018.3 mb 0.00 in0.0 mm 0.00 in0.0 mm 0.00 in0.0 mm
03:10 AM 54.2°F12.3°C 52.2°F11.2°C 93% Calm Calm -- 30.07 in1018.3 mb 0.00 in0.0 mm 0.00 in0.0 mm 0.00 in0.0 mm
03:05 AM 54.2°F12.3°C 52.2°F11.2°C 93% Calm Calm -- 30.07 in1018.3 mb 0.00 in0.0 mm 0.00 in0.0 mm 0.00 in0.0 mm
03:00 AM 54.2°F12.3°C 52.2°F11.2°C 93% Calm Calm -- 30.07 in1018.3 mb 0.00 in0.0 mm 0.00 in0.0 mm 0.00 in0.0 mm
02:55 AM 54.2°F12.3°C 52.2°F11.2°C 93% Calm Calm -- 30.07 in1018.3 mb 0.00 in0.0 mm 0.00 in0.0 mm 0.00 in0.0 mm
02:50 AM 54.2°F12.3°C 52.2°F11.2°C 93% Calm Calm -- 30.07 in1018.3 mb 0.00 in0.0 mm 0.00 in0.0 mm 0.00 in0.0 mm
02:45 AM 54.2°F12.3°C 52.2°F11.2°C 93% Calm Calm -- 30.07 in1018.3 mb 0.00 in0.0 mm 0.00 in0.0 mm 0.00 in0.0 mm
02:40 AM 54.2°F12.3°C 52.2°F11.2°C 93% Calm Calm -- 30.07 in1018.3 mb 0.00 in0.0 mm 0.00 in0.0 mm 0.00 in0.0 mm
02:35 AM 54.2°F12.3°C 52.2°F11.2°C 93% Calm Calm -- 30.07 in1018.3 mb 0.00 in0.0 mm 0.00 in0.0 mm 0.00 in0.0 mm
02:30 AM 54.2°F12.3°C 52.2°F11.2°C 93% Calm Calm -- 30.07 in1018.3 mb 0.00 in0.0 mm 0.00 in0.0 mm 0.00 in0.0 mm
02:25 AM 54.2°F12.3°C 52.2°F11.2°C 93% Calm Calm -- 30.07 in1018.3 mb 0.00 in0.0 mm 0.00 in0.0 mm 0.00 in0.0 mm
02:20 AM 54.2°F12.3°C 52.2°F11.2°C 93% Calm Calm -- 30.07 in1018.3 mb 0.00 in0.0 mm 0.00 in0.0 mm 0.00 in0.0 mm
02:15 AM 54.2°F12.3°C 52.0°F11.1°C 92% Calm Calm -- 30.07 in1018.3 mb 0.00 in0.0 mm 0.00 in0.0 mm 0.00 in0.0 mm
02:10 AM 54.2°F12.3°C 52.0°F11.1°C 92% Calm Calm -- 30.07 in1018.3 mb 0.00 in0.0 mm 0.00 in0.0 mm 0.00 in0.0 mm
02:05 AM 54.2°F12.3°C 52.0°F11.1°C 92% Calm Calm -- 30.07 in1018.3 mb 0.00 in0.0 mm 0.00 in0.0 mm 0.00 in0.0 mm
02:00 AM 54.2°F12.3°C 52.0°F11.1°C 92% Calm Calm -- 30.07 in1018.3 mb 0.00 in0.0 mm 0.00 in0.0 mm 0.00 in0.0 mm
01:55 AM 54.4°F12.4°C 52.1°F11.2°C 92% Calm Calm -- 30.07 in1018.3 mb 0.00 in0.0 mm 0.00 in0.0 mm 0.00 in0.0 mm
01:50 AM 54.4°F12.4°C 52.1°F11.2°C 92% Calm Calm -- 30.07 in1018.3 mb 0.00 in0.0 mm 0.00 in0.0 mm 0.00 in0.0 mm
01:45 AM 54.4°F12.4°C 52.1°F11.2°C 92% Calm Calm -- 30.07 in1018.3 mb 0.00 in0.0 mm 0.00 in0.0 mm 0.00 in0.0 mm
01:40 AM 54.4°F12.4°C 52.1°F11.2°C 92% Calm Calm -- 30.07 in1018.3 mb 0.00 in0.0 mm 0.00 in0.0 mm 0.00 in0.0 mm
01:35 AM 54.4°F12.4°C 52.1°F11.2°C 92% Calm Calm -- 30.07 in1018.3 mb 0.00 in0.0 mm 0.00 in0.0 mm 0.00 in0.0 mm
01:30 AM 54.6°F12.6°C 52.3°F11.3°C 92% Calm Calm -- 30.07 in1018.3 mb 0.00 in0.0 mm 0.00 in0.0 mm 0.00 in0.0 mm
01:25 AM 54.4°F12.4°C 52.1°F11.2°C 92% Calm Calm -- 30.07 in1018.3 mb 0.00 in0.0 mm 0.00 in0.0 mm 0.00 in0.0 mm
01:20 AM 54.6°F12.6°C 52.3°F11.3°C 92% Calm Calm -- 30.07 in1018.3 mb 0.00 in0.0 mm 0.00 in0.0 mm 0.00 in0.0 mm
01:15 AM 54.6°F12.6°C 52.3°F11.3°C 92% Calm Calm -- 30.07 in1018.3 mb 0.00 in0.0 mm 0.00 in0.0 mm 0.00 in0.0 mm
01:10 AM 54.6°F12.6°C 52.3°F11.3°C 92% Calm Calm -- 30.07 in1018.3 mb 0.00 in0.0 mm 0.00 in0.0 mm 0.00 in0.0 mm
01:05 AM 54.4°F12.4°C 52.1°F11.2°C 92% Calm Calm -- 30.07 in1018.3 mb 0.00 in0.0 mm 0.00 in0.0 mm 0.00 in0.0 mm
01:00 AM 54.4°F12.4°C 52.1°F11.2°C 92% Calm Calm -- 30.07 in1018.3 mb 0.00 in0.0 mm 0.00 in0.0 mm 0.00 in0.0 mm
12:55 AM 54.4°F12.4°C 52.1°F11.2°C 92% Calm Calm -- 30.07 in1018.3 mb 0.00 in0.0 mm 0.00 in0.0 mm 0.00 in0.0 mm
12:50 AM 54.6°F12.6°C 52.3°F11.3°C 92% Calm Calm -- 30.07 in1018.3 mb 0.00 in0.0 mm 0.00 in0.0 mm 0.00 in0.0 mm
12:45 AM 54.6°F12.6°C 52.3°F11.3°C 92% Calm Calm -- 30.07 in1018.3 mb 0.00 in0.0 mm 0.00 in0.0 mm 0.00 in0.0 mm
12:40 AM 54.6°F12.6°C 52.3°F11.3°C 92% Calm Calm -- 30.09 in1019.0 mb 0.00 in0.0 mm 0.00 in0.0 mm 0.00 in0.0 mm
12:35 AM 54.6°F12.6°C 52.3°F11.3°C 92% Calm Calm -- 30.09 in1019.0 mb 0.00 in0.0 mm 0.00 in0.0 mm 0.00 in0.0 mm
12:30 AM 54.6°F12.6°C 52.3°F11.3°C 92% Calm Calm -- 30.09 in1019.0 mb 0.00 in0.0 mm 0.00 in0.0 mm 0.00 in0.0 mm
12:25 AM 54.6°F12.6°C 52.3°F11.3°C 92% Calm Calm -- 30.09 in1019.0 mb 0.00 in0.0 mm 0.00 in0.0 mm 0.00 in0.0 mm
12:20 AM 54.6°F12.6°C 52.3°F11.3°C 92% Calm Calm -- 30.09 in1019.0 mb 0.00 in0.0 mm 0.00 in0.0 mm 0.00 in0.0 mm
12:15 AM 54.6°F12.6°C 52.3°F11.3°C 92% Calm Calm -- 30.09 in1019.0 mb 0.00 in0.0 mm 0.00 in0.0 mm 0.00 in0.0 mm
12:10 AM 54.6°F12.6°C 52.3°F11.3°C 92% Calm Calm -- 30.09 in1019.0 mb 0.00 in0.0 mm 0.00 in0.0 mm 0.00 in0.0 mm
12:05 AM 54.6°F12.6°C 52.3°F11.3°C 92% Calm Calm -- 30.09 in1019.0 mb 0.00 in0.0 mm 0.00 in0.0 mm 0.00 in0.0 mm
12:00 AM 54.6°F12.6°C 52.3°F11.3°C 92% Calm Calm -- 30.09 in1019.0 mb 0.00 in0.0 mm 0.00 in0.0 mm 0.00 in0.0 mm